Μαλάτεια, Τουρκία

01:53 PM EET on Μάρτιος 27, 2015 (GMT +0200)
Erhac Air Base | | Change Station
CLOSE
Current Station
Airport
Location: Malatya,
Elevation: 2785 ft
Nearby Weather Stations

Elev 2785 ft 38.44 °N, 38.09 °E | Updated 33 minutes ago

Mostly Cloudy
Νεφελώδης
55 ° F
Feels Like 55 ° F
N
6
Ανεμος Μεταβλητός Ανεμος from Βόρειος

Σήμερα
High -- | Low -- ° F
--% Chance of Precip.
Yesterday
High -- | Low -- ° F
Precip. -- in
5:21 AM 5:45 PM
Πρώτο τέταρτο, 52% visible
Ατμοσφαιρική Πίεση 30.15 in
Ορατότητα 6.2 Μίλια
Σύννεφα Διάσπαρτα Νέφη 4000 ft
Νεφελώδης 10000 ft
Σημείο Δρόσου 45 ° F
Υγρασία 67%
Rainfall 0.00 in
Snow Depth Not available.
Υπεριώδης ακτινοβολία (UV) 4 out of 12
Pollen Not available.
Air Quality Not available.
Flu Activity Not available.
METAR LTAT 271120Z 01005KT 330V050 9999 SCT040 BKN100 13/07 Q1021 NOSIG

More Conditions Fewer Conditions

Ατμοσφαιρική Πίεση 30.15 in
Ορατότητα 6.2 Μίλια
Σύννεφα Διάσπαρτα Νέφη 4000 ft
Νεφελώδης 10000 ft
Σημείο Δρόσου 45 ° F
Υγρασία 67%
Rainfall 0.00 in
Snow Depth Not available.
Υπεριώδης ακτινοβολία (UV) 4 out of 12
Pollen Not available.
Air Quality Not available.
Flu Activity Not available.
METAR LTAT 271120Z 01005KT 330V050 9999 SCT040 BKN100 13/07 Q1021 NOSIG

More Conditions Fewer Conditions

10-Day Weather Forecast

Almanac

Αστρονομία

Mar. 27, 2015 Rise Set
Actual Time
Civil Twilight
Nautical Twilight
Astronomical Twilight
Moon
Length Of Visible Light
Διάρκεια ημέρας
Tomorrow will be .
, % of the Moon is Illuminated

Today's Extremes

Country Highs Country Lows

Community

WunderPhotos

Upload Photos

1,808,710 photos uploaded!

WunderBlogs® & News

Nearby

Air Quality

  Air Quality AQ Index Pollutant
Not available.

Snow Depth

Station Depth Elevation

Earthquake Activity

City Distance Mag. Time & Date
Minimum magnitude displayed is 2.5.

Coastal Water Temperatures

Τοποθεσία Θερμοκρασία

Stations

Nearby Weather Stations

Station Location Temp Δείκτης Ψυχρότητας Σημείο Δρόσου Υγρασία Ανεμος Precip. Elev Ενημερώθηκε Type